createdAt,value
2022-10-11T00:01:19.822Z,101920.28
2022-10-11T00:03:46.322Z,101925.03
2022-10-11T00:06:12.816Z,101930.22
2022-10-11T00:08:39.310Z,101933.97
2022-10-11T00:11:07.462Z,101938.09
2022-10-11T00:13:34.456Z,101933.06
2022-10-11T00:16:01.153Z,101945.97
2022-10-11T00:18:27.856Z,101941.78
2022-10-11T00:21:05.268Z,101950.09
2022-10-11T00:23:32.472Z,101958.81
2022-10-11T00:26:00.845Z,101965.47
2022-10-11T00:28:27.953Z,101961.72
2022-10-11T00:30:54.518Z,101961.72
2022-10-11T00:33:21.211Z,101959.00
2022-10-11T00:35:48.839Z,101959.00
2022-10-11T00:38:16.097Z,101959.00
2022-10-11T00:40:42.911Z,101965.47
2022-10-11T00:43:16.451Z,101961.72
2022-10-11T00:45:58.088Z,101964.25
2022-10-11T00:48:31.069Z,101969.31
2022-10-11T00:50:59.979Z,101968.94
2022-10-11T00:53:30.427Z,101972.94
2022-10-11T00:56:05.466Z,101969.00
2022-10-11T00:58:35.095Z,101969.47
2022-10-11T01:01:02.071Z,101970.13
2022-10-11T01:03:31.726Z,101975.38
2022-10-11T01:05:58.368Z,101974.97
2022-10-11T01:08:25.777Z,101972.91
2022-10-11T01:10:52.516Z,101980.66
2022-10-11T01:13:24.631Z,101969.81
2022-10-11T01:16:04.878Z,101971.50
2022-10-11T01:18:38.441Z,101970.47
2022-10-11T01:21:13.757Z,101969.44
2022-10-11T01:23:49.011Z,101979.28
2022-10-11T01:26:40.578Z,101987.44
2022-10-11T01:29:37.114Z,101979.28
2022-10-11T01:32:15.352Z,101979.63
2022-10-11T01:34:52.253Z,101983.03
2022-10-11T01:37:37.046Z,101985.06
2022-10-11T01:40:11.617Z,101984.44
2022-10-11T01:42:40.323Z,101990.91
2022-10-11T01:45:15.545Z,101991.72
2022-10-11T01:47:42.676Z,101995.66
2022-10-11T01:50:40.118Z,101990.25
2022-10-11T01:53:12.690Z,101986.22
2022-10-11T01:56:02.382Z,102002.91
2022-10-11T01:58:47.395Z,102001.59
2022-10-11T02:01:34.721Z,102007.03
2022-10-11T02:04:12.190Z,102012.44
2022-10-11T02:06:38.989Z,102012.66
2022-10-11T02:09:43.897Z,102013.88
2022-10-11T02:12:13.198Z,102011.16
2022-10-11T02:14:44.462Z,102018.28
2022-10-11T02:17:16.866Z,102015.56
2022-10-11T02:19:51.799Z,102013.88
2022-10-11T02:22:32.986Z,102014.91
2022-10-11T02:25:05.329Z,102015.56
2022-10-11T02:27:35.842Z,102017.44
2022-10-11T02:30:05.086Z,102016.59
2022-10-11T02:32:33.031Z,102016.59
2022-10-11T02:35:02.090Z,102019.09
2022-10-11T02:37:54.934Z,102019.09
2022-10-11T02:40:28.028Z,102022.69
2022-10-11T02:43:01.388Z,102025.59
2022-10-11T02:45:33.795Z,102032.25
2022-10-11T02:48:01.022Z,102024.84
2022-10-11T02:50:28.043Z,102025.03
2022-10-11T02:52:54.570Z,102028.97
2022-10-11T02:55:21.306Z,102028.50
2022-10-11T02:57:47.834Z,102034.28
2022-10-11T03:00:15.323Z,102038.41
2022-10-11T03:02:41.914Z,102034.41
2022-10-11T03:05:09.117Z,102044.78
2022-10-11T03:07:35.709Z,102042.44
2022-10-11T03:10:02.467Z,102071.00
2022-10-11T03:12:28.977Z,102066.78
2022-10-11T03:14:55.568Z,102083.22
2022-10-11T03:17:36.127Z,102078.00
2022-10-11T03:20:04.891Z,102084.94
2022-10-11T03:22:31.450Z,102090.16
2022-10-11T03:25:03.376Z,102091.03
2022-10-11T03:27:30.532Z,102090.00
2022-10-11T03:29:57.813Z,102089.34
2022-10-11T03:32:24.482Z,102085.78
2022-10-11T03:34:50.979Z,102091.56
2022-10-11T03:37:17.671Z,102082.78
2022-10-11T03:39:45.648Z,102091.09
2022-10-11T03:42:13.559Z,102094.19
2022-10-11T03:44:41.701Z,102089.13
2022-10-11T03:47:08.996Z,102093.06
2022-10-11T03:49:37.727Z,102095.28
2022-10-11T03:52:07.930Z,102093.59
2022-10-11T03:54:34.434Z,102103.78
2022-10-11T03:57:01.326Z,102103.13
2022-10-11T03:59:28.210Z,102104.53
2022-10-11T04:01:54.770Z,102102.53
2022-10-11T04:04:21.353Z,102111.88
2022-10-11T04:06:47.873Z,102116.81
2022-10-11T04:09:14.378Z,102110.91
2022-10-11T04:11:40.897Z,102119.22
2022-10-11T04:14:07.388Z,102119.59
2022-10-11T04:16:35.255Z,102119.94
2022-10-11T04:19:01.754Z,102112.38
2022-10-11T04:21:28.256Z,102127.13
2022-10-11T04:23:54.851Z,102121.03
2022-10-11T04:26:21.533Z,102130.56
2022-10-11T04:28:48.142Z,102130.56
2022-10-11T04:31:14.846Z,102133.47
2022-10-11T04:33:41.509Z,102122.97
2022-10-11T04:36:08.748Z,102132.09
2022-10-11T04:38:35.672Z,102132.09
2022-10-11T04:41:10.029Z,102148.94
2022-10-11T04:43:36.833Z,102148.44
2022-10-11T04:46:04.057Z,102149.44
2022-10-11T04:48:31.119Z,102158.78
2022-10-11T04:50:57.729Z,102165.22
2022-10-11T04:53:24.340Z,102153.72
2022-10-11T04:56:02.884Z,102155.94
2022-10-11T04:58:30.937Z,102165.44
2022-10-11T05:00:57.793Z,102164.94
2022-10-11T05:03:25.023Z,102172.75
2022-10-11T05:05:52.891Z,102177.31
2022-10-11T05:08:20.389Z,102183.75
2022-10-11T05:11:01.235Z,102183.06
2022-10-11T05:13:28.934Z,102186.97
2022-10-11T05:15:55.480Z,102188.34
2022-10-11T05:18:22.723Z,102181.25
2022-10-11T05:20:50.394Z,102180.91
2022-10-11T05:23:16.895Z,102183.94
2022-10-11T05:25:43.431Z,102188.72
2022-10-11T05:28:10.027Z,102195.16
2022-10-11T05:30:36.559Z,102195.34
2022-10-11T05:33:03.235Z,102203.59
2022-10-11T05:35:29.779Z,102198.19
2022-10-11T05:37:56.367Z,102200.75
2022-10-11T05:40:22.892Z,102211.41
2022-10-11T05:42:49.404Z,102204.97
2022-10-11T05:45:15.914Z,102214.63
2022-10-11T05:47:42.429Z,102213.75
2022-10-11T05:50:09.390Z,102209.66
2022-10-11T05:52:35.895Z,102217.66
2022-10-11T05:55:03.398Z,102230.00
2022-10-11T05:57:29.936Z,102236.06
2022-10-11T05:59:56.690Z,102229.28
2022-10-11T06:02:23.219Z,102231.69
2022-10-11T06:04:49.709Z,102232.53
2022-10-11T06:07:16.241Z,102235.91
2022-10-11T06:09:42.733Z,102238.81
2022-10-11T06:12:09.253Z,102237.75
2022-10-11T06:14:36.014Z,102246.56
2022-10-11T06:17:02.546Z,102250.13
2022-10-11T06:19:29.051Z,102249.97
2022-10-11T06:21:55.588Z,102246.06
2022-10-11T06:24:22.215Z,102252.13
2022-10-11T06:26:49.308Z,102248.41
2022-10-11T06:29:15.967Z,102259.94
2022-10-11T06:31:42.586Z,102267.88
2022-10-11T06:34:09.555Z,102261.44
2022-10-11T06:36:36.243Z,102264.81
2022-10-11T06:39:03.073Z,102264.81
2022-10-11T06:41:30.873Z,102274.63
2022-10-11T06:43:57.907Z,102270.91
2022-10-11T06:46:26.157Z,102276.84
2022-10-11T06:48:53.945Z,102271.22
2022-10-11T06:51:21.960Z,102284.44
2022-10-11T06:53:56.739Z,102283.22
2022-10-11T06:56:23.777Z,102288.13
2022-10-11T06:58:51.292Z,102287.97
2022-10-11T07:01:20.355Z,102293.88
2022-10-11T07:03:48.299Z,102291.47
2022-10-11T07:06:18.177Z,102295.16
2022-10-11T07:08:45.040Z,102294.81
2022-10-11T07:11:14.896Z,102295.13
2022-10-11T07:13:41.998Z,102292.75
2022-10-11T07:16:11.886Z,102300.16
2022-10-11T07:18:39.074Z,102308.78
2022-10-11T07:21:08.251Z,102310.13
2022-10-11T07:23:34.982Z,102314.66
2022-10-11T07:26:01.734Z,102322.06
2022-10-11T07:28:30.587Z,102311.72
2022-10-11T07:30:58.484Z,102314.69
2022-10-11T07:33:25.281Z,102326.28
2022-10-11T07:35:51.893Z,102318.34
2022-10-11T07:38:18.452Z,102327.19
2022-10-11T07:40:46.485Z,102329.47
2022-10-11T07:43:13.917Z,102336.03
2022-10-11T07:45:41.852Z,102331.44
2022-10-11T07:48:08.943Z,102334.63
2022-10-11T07:51:05.298Z,102335.41
2022-10-11T07:53:31.983Z,102335.78
2022-10-11T07:56:02.675Z,102333.75
2022-10-11T07:58:29.512Z,102337.78
2022-10-11T08:00:56.071Z,102343.50
2022-10-11T08:03:22.877Z,102339.88
2022-10-11T08:05:49.461Z,102339.13
2022-10-11T08:08:16.016Z,102340.09
2022-10-11T08:10:42.523Z,102339.31
2022-10-11T08:13:09.045Z,102332.94
2022-10-11T08:15:35.664Z,102340.28
2022-10-11T08:18:02.189Z,102347.97
2022-10-11T08:20:31.108Z,102351.63
2022-10-11T08:22:57.833Z,102353.41
2022-10-11T08:25:24.425Z,102347.06
2022-10-11T08:27:50.936Z,102353.59
2022-10-11T08:30:17.575Z,102357.97
2022-10-11T08:32:44.126Z,102354.97
2022-10-11T08:35:10.618Z,102362.94
2022-10-11T08:37:37.260Z,102370.41
2022-10-11T08:40:05.913Z,102372.59
2022-10-11T08:42:41.599Z,102364.53
2022-10-11T08:45:16.931Z,102367.13
2022-10-11T08:47:45.314Z,102372.28
2022-10-11T08:50:19.880Z,102373.69
2022-10-11T08:52:52.578Z,102375.25
2022-10-11T08:55:26.339Z,102370.25
2022-10-11T08:57:56.346Z,102373.06
2022-10-11T09:00:25.212Z,102374.34
2022-10-11T09:03:19.532Z,102369.13
2022-10-11T09:05:55.945Z,102382.63
2022-10-11T09:08:53.342Z,102379.47
2022-10-11T09:11:46.870Z,102379.06
2022-10-11T09:14:51.142Z,102382.25
2022-10-11T09:17:26.219Z,102383.94
2022-10-11T09:20:11.645Z,102386.06
2022-10-11T09:22:55.152Z,102384.34
2022-10-11T09:25:30.415Z,102393.22
2022-10-11T09:28:03.817Z,102395.97
2022-10-11T09:30:30.686Z,102390.91
2022-10-11T09:33:13.446Z,102399.97
2022-10-11T09:35:44.471Z,102400.16
2022-10-11T09:38:38.611Z,102402.47
2022-10-11T09:41:14.633Z,102407.50
2022-10-11T09:43:44.981Z,102404.94
2022-10-11T09:46:34.195Z,102410.59
2022-10-11T09:49:04.219Z,102413.72
2022-10-11T09:51:31.353Z,102412.06
2022-10-11T09:53:57.892Z,102411.59
2022-10-11T09:56:26.402Z,102417.56
2022-10-11T09:59:14.695Z,102412.66
2022-10-11T10:01:41.291Z,102419.59
2022-10-11T10:04:11.475Z,102426.34
2022-10-11T10:06:40.059Z,102421.66
2022-10-11T10:09:26.912Z,102424.22
2022-10-11T10:11:55.568Z,102423.31
2022-10-11T10:14:30.525Z,102423.78
2022-10-11T10:17:14.626Z,102426.69
2022-10-11T10:19:49.323Z,102426.66
2022-10-11T10:22:20.631Z,102434.25
2022-10-11T10:24:49.264Z,102420.53
2022-10-11T10:27:21.175Z,102436.31
2022-10-11T10:30:03.136Z,102425.72
2022-10-11T10:32:47.562Z,102420.63
2022-10-11T10:35:24.036Z,102423.19
2022-10-11T10:37:56.715Z,102425.03
2022-10-11T10:40:28.984Z,102425.28
2022-10-11T10:42:55.503Z,102429.03
2022-10-11T10:45:29.435Z,102424.53
2022-10-11T10:48:09.307Z,102426.41
2022-10-11T10:50:52.546Z,102429.69
2022-10-11T10:53:37.639Z,102432.25
2022-10-11T10:56:19.017Z,102434.09
2022-10-11T10:59:30.586Z,102437.69
2022-10-11T11:02:40.805Z,102442.50
2022-10-11T11:05:48.423Z,102438.50
2022-10-11T11:08:30.157Z,102442.69
2022-10-11T11:11:08.631Z,102441.84
2022-10-11T11:13:48.477Z,102441.13
2022-10-11T11:16:20.972Z,102448.72
2022-10-11T11:19:02.983Z,102435.94
2022-10-11T11:21:41.765Z,102447.06
2022-10-11T11:24:44.143Z,102449.50
2022-10-11T11:27:31.281Z,102450.13
2022-10-11T11:30:10.206Z,102457.19
2022-10-11T11:32:48.723Z,102447.91
2022-10-11T11:35:17.991Z,102459.69
2022-10-11T11:37:48.271Z,102453.16
2022-10-11T11:40:27.168Z,102446.53
2022-10-11T11:43:00.940Z,102453.03
2022-10-11T11:45:37.480Z,102451.28
2022-10-11T11:48:13.377Z,102444.97
2022-10-11T11:50:46.245Z,102446.91
2022-10-11T11:53:22.854Z,102449.06
2022-10-11T11:55:59.130Z,102443.41
2022-10-11T11:58:38.923Z,102439.31
2022-10-11T12:01:36.046Z,102435.50
2022-10-11T12:04:08.695Z,102441.47
2022-10-11T12:06:47.674Z,102439.19
2022-10-11T12:09:23.602Z,102437.25
2022-10-11T12:11:57.291Z,102436.53
2022-10-11T12:14:43.983Z,102440.19
2022-10-11T12:17:16.374Z,102439.59
2022-10-11T12:20:02.270Z,102429.75
2022-10-11T12:22:28.927Z,102434.34
2022-10-11T12:24:57.159Z,102433.03
2022-10-11T12:27:57.071Z,102432.50
2022-10-11T12:30:48.640Z,102430.47
2022-10-11T12:33:26.127Z,102430.19
2022-10-11T12:35:55.552Z,102429.00
2022-10-11T12:38:25.134Z,102428.38
2022-10-11T12:41:03.084Z,102428.69
2022-10-11T12:43:36.370Z,102426.53
2022-10-11T12:46:33.647Z,102430.19
2022-10-11T12:49:36.273Z,102423.78
2022-10-11T12:52:05.080Z,102423.91
2022-10-11T12:55:29.799Z,102431.41
2022-10-11T12:58:30.557Z,102427.91
2022-10-11T13:00:57.896Z,102423.72
2022-10-11T13:03:42.697Z,102431.34
2022-10-11T13:06:15.338Z,102424.06
2022-10-11T13:08:45.144Z,102431.69
2022-10-11T13:11:19.079Z,102428.34
2022-10-11T13:13:52.263Z,102430.19
2022-10-11T13:16:22.400Z,102427.84
2022-10-11T13:18:53.802Z,102425.00
2022-10-11T13:21:28.370Z,102429.06
2022-10-11T13:23:58.976Z,102432.88
2022-10-11T13:26:28.258Z,102426.00
2022-10-11T13:28:55.594Z,102432.69
2022-10-11T13:31:24.207Z,102429.75
2022-10-11T13:33:57.288Z,102421.06
2022-10-11T13:36:26.827Z,102429.16
2022-10-11T13:38:59.192Z,102414.31
2022-10-11T13:41:30.626Z,102418.75
2022-10-11T13:43:59.096Z,102417.72
2022-10-11T13:46:27.996Z,102416.81
2022-10-11T13:49:06.795Z,102417.41
2022-10-11T13:51:37.743Z,102416.09
2022-10-11T13:54:09.469Z,102419.09
2022-10-11T13:56:47.481Z,102411.09
2022-10-11T13:59:23.001Z,102413.66
2022-10-11T14:01:55.290Z,102418.84
2022-10-11T14:04:24.101Z,102408.16
2022-10-11T14:06:56.681Z,102413.75
2022-10-11T14:09:30.892Z,102407.03
2022-10-11T14:12:28.239Z,102414.06
2022-10-11T14:14:54.816Z,102414.06
2022-10-11T14:17:32.555Z,102416.47
2022-10-11T14:20:11.900Z,102407.53
2022-10-11T14:22:39.023Z,102411.38
2022-10-11T14:25:05.942Z,102411.81
2022-10-11T14:27:32.750Z,102418.59
2022-10-11T14:30:25.200Z,102415.59
2022-10-11T14:32:49.113Z,102415.28
2022-10-11T14:35:23.332Z,102415.50
2022-10-11T14:37:50.282Z,102417.84
2022-10-11T14:40:20.680Z,102415.78
2022-10-11T14:42:47.789Z,102415.63
2022-10-11T14:45:14.336Z,102418.34
2022-10-11T14:47:43.122Z,102420.69
2022-10-11T14:50:54.363Z,102415.44
2022-10-11T14:53:21.164Z,102415.25
2022-10-11T14:55:48.300Z,102421.34
2022-10-11T14:58:16.706Z,102415.25
2022-10-11T15:00:43.720Z,102418.88
2022-10-11T15:03:10.447Z,102418.25
2022-10-11T15:05:37.348Z,102415.50
2022-10-11T15:08:05.846Z,102414.97
2022-10-11T15:10:40.433Z,102418.53
2022-10-11T15:13:08.240Z,102414.31
2022-10-11T15:15:40.646Z,102419.81
2022-10-11T15:18:12.292Z,102417.69
2022-10-11T15:20:42.610Z,102419.34
2022-10-11T15:23:10.567Z,102419.34
2022-10-11T15:25:38.906Z,102418.97
2022-10-11T15:28:06.731Z,102419.81
2022-10-11T15:30:40.961Z,102418.59
2022-10-11T15:33:08.126Z,102426.59
2022-10-11T15:35:34.617Z,102421.91
2022-10-11T15:38:01.198Z,102424.84
2022-10-11T15:40:35.815Z,102432.41
2022-10-11T15:43:03.756Z,102431.97
2022-10-11T15:45:30.462Z,102425.88
2022-10-11T15:47:57.169Z,102430.31
2022-10-11T15:50:36.811Z,102427.34
2022-10-11T15:53:05.698Z,102423.38
2022-10-11T15:55:34.021Z,102430.31
2022-10-11T15:58:04.174Z,102424.81
2022-10-11T16:00:30.797Z,102425.44
2022-10-11T16:02:59.211Z,102428.16
2022-10-11T16:05:27.919Z,102437.06
2022-10-11T16:07:54.936Z,102438.56
2022-10-11T16:10:21.650Z,102440.28
2022-10-11T16:12:48.289Z,102441.75
2022-10-11T16:15:15.528Z,102435.88
2022-10-11T16:17:42.123Z,102434.63
2022-10-11T16:20:09.090Z,102442.88
2022-10-11T16:22:36.009Z,102440.78
2022-10-11T16:25:04.618Z,102437.00
2022-10-11T16:27:31.289Z,102441.47
2022-10-11T16:29:58.236Z,102447.16
2022-10-11T16:32:25.446Z,102435.59
2022-10-11T16:34:51.990Z,102440.47
2022-10-11T16:37:19.012Z,102441.97
2022-10-11T16:39:45.936Z,102440.31
2022-10-11T16:42:12.500Z,102448.31
2022-10-11T16:44:39.381Z,102441.41
2022-10-11T16:47:06.625Z,102448.13
2022-10-11T16:49:33.566Z,102446.25
2022-10-11T16:52:02.276Z,102446.88
2022-10-11T16:54:30.298Z,102449.22
2022-10-11T16:56:57.862Z,102445.88
2022-10-11T16:59:24.623Z,102447.13
2022-10-11T17:01:51.517Z,102444.16
2022-10-11T17:04:18.299Z,102439.34
2022-10-11T17:06:44.955Z,102437.00
2022-10-11T17:09:11.926Z,102442.03
2022-10-11T17:11:38.487Z,102434.25
2022-10-11T17:14:06.189Z,102440.34
2022-10-11T17:16:32.897Z,102426.88
2022-10-11T17:18:59.577Z,102434.41
2022-10-11T17:21:26.085Z,102433.34
2022-10-11T17:23:53.180Z,102434.81
2022-10-11T17:26:27.734Z,102432.06
2022-10-11T17:28:55.922Z,102431.63
2022-10-11T17:31:23.937Z,102432.63
2022-10-11T17:33:51.215Z,102441.63
2022-10-11T17:36:25.190Z,102450.25
2022-10-11T17:38:52.323Z,102444.78
2022-10-11T17:41:19.312Z,102439.91
2022-10-11T17:43:46.735Z,102451.25
2022-10-11T17:46:14.883Z,102449.72
2022-10-11T17:48:41.878Z,102443.19
2022-10-11T17:51:15.417Z,102448.81
2022-10-11T17:53:42.088Z,102451.69
2022-10-11T17:56:12.029Z,102439.50
2022-10-11T17:58:39.180Z,102436.06
2022-10-11T18:01:09.777Z,102444.00
2022-10-11T18:03:36.803Z,102441.44
2022-10-11T18:06:08.209Z,102437.59
2022-10-11T18:08:40.221Z,102435.47
2022-10-11T18:11:19.790Z,102438.31
2022-10-11T18:13:51.546Z,102442.03
2022-10-11T18:16:23.035Z,102442.00
2022-10-11T18:18:49.997Z,102442.78
2022-10-11T18:21:18.424Z,102446.94
2022-10-11T18:23:45.782Z,102439.34
2022-10-11T18:26:15.347Z,102443.69
2022-10-11T18:28:43.053Z,102436.28
2022-10-11T18:31:15.868Z,102444.63
2022-10-11T18:33:45.534Z,102441.81
2022-10-11T18:36:16.558Z,102440.69
2022-10-11T18:38:46.704Z,102440.63
2022-10-11T18:41:20.048Z,102440.78
2022-10-11T18:43:55.234Z,102447.63
2022-10-11T18:46:23.238Z,102443.78
2022-10-11T18:48:52.214Z,102444.19
2022-10-11T18:51:20.422Z,102437.41
2022-10-11T18:53:47.688Z,102434.25
2022-10-11T18:56:16.049Z,102426.84
2022-10-11T18:58:44.746Z,102433.88
2022-10-11T19:01:16.013Z,102433.78
2022-10-11T19:03:43.740Z,102438.59
2022-10-11T19:06:17.199Z,102429.31
2022-10-11T19:08:48.385Z,102439.91
2022-10-11T19:11:16.508Z,102430.63
2022-10-11T19:13:43.902Z,102431.19
2022-10-11T19:16:13.568Z,102430.91
2022-10-11T19:18:44.303Z,102430.63
2022-10-11T19:21:13.145Z,102435.81
2022-10-11T19:23:44.277Z,102440.59
2022-10-11T19:26:15.224Z,102441.97
2022-10-11T19:28:42.511Z,102444.41
2022-10-11T19:31:13.095Z,102441.06
2022-10-11T19:33:39.723Z,102437.19
2022-10-11T19:36:06.962Z,102446.72
2022-10-11T19:38:35.079Z,102449.16
2022-10-11T19:41:03.028Z,102448.31
2022-10-11T19:43:29.602Z,102447.84
2022-10-11T19:46:08.377Z,102443.63
2022-10-11T19:48:39.298Z,102445.03
2022-10-11T19:51:12.148Z,102445.38
2022-10-11T19:53:38.803Z,102448.47
2022-10-11T19:56:09.447Z,102454.31
2022-10-11T19:58:36.000Z,102447.16
2022-10-11T20:01:08.261Z,102437.69
2022-10-11T20:03:35.100Z,102441.44
2022-10-11T20:06:07.467Z,102445.38
2022-10-11T20:08:35.750Z,102446.78
2022-10-11T20:11:05.531Z,102441.88
2022-10-11T20:13:34.998Z,102440.56
2022-10-11T20:16:13.783Z,102440.06
2022-10-11T20:18:41.310Z,102436.03
2022-10-11T20:21:13.067Z,102439.75
2022-10-11T20:26:21.175Z,102452.75
2022-10-11T20:28:54.994Z,102448.53
2022-10-11T20:31:28.228Z,102447.19
2022-10-11T20:33:57.320Z,102455.69
2022-10-11T20:36:26.749Z,102447.53
2022-10-11T20:38:53.312Z,102443.88
2022-10-11T20:41:28.367Z,102445.91
2022-10-11T20:43:57.226Z,102438.13
2022-10-11T20:46:28.035Z,102441.00
2022-10-11T20:49:01.291Z,102451.03
2022-10-11T20:51:32.742Z,102443.25
2022-10-11T20:54:00.953Z,102447.19
2022-10-11T20:56:28.534Z,102446.69
2022-10-11T20:58:56.301Z,102447.91
2022-10-11T21:01:28.715Z,102451.81
2022-10-11T21:03:59.274Z,102448.59
2022-10-11T21:06:27.208Z,102445.59
2022-10-11T21:08:59.068Z,102446.97
2022-10-11T21:11:31.460Z,102449.88
2022-10-11T21:14:00.243Z,102443.94
2022-10-11T21:16:27.375Z,102450.56
2022-10-11T21:18:57.399Z,102458.91
2022-10-11T21:21:25.231Z,102455.69
2022-10-11T21:24:00.724Z,102453.16
2022-10-11T21:26:28.729Z,102452.66
2022-10-11T21:28:55.596Z,102449.25
2022-10-11T21:31:23.189Z,102462.34
2022-10-11T21:33:49.804Z,102454.56
2022-10-11T21:36:21.519Z,102456.78
2022-10-11T21:38:49.050Z,102449.81
2022-10-11T21:41:18.471Z,102461.88
2022-10-11T21:43:45.733Z,102462.25
2022-10-11T21:46:15.926Z,102456.13
2022-10-11T21:48:42.457Z,102454.78
2022-10-11T21:51:15.246Z,102460.56
2022-10-11T21:53:41.831Z,102456.34
2022-10-11T21:56:08.707Z,102459.22
2022-10-11T21:58:35.230Z,102462.28
2022-10-11T22:01:01.759Z,102456.34
2022-10-11T22:03:28.282Z,102458.41
2022-10-11T22:05:54.844Z,102451.47
2022-10-11T22:08:21.404Z,102446.38
2022-10-11T22:10:57.317Z,102447.75
2022-10-11T22:13:24.847Z,102454.53
2022-10-11T22:15:51.524Z,102445.06
2022-10-11T22:18:18.072Z,102448.78
2022-10-11T22:20:44.687Z,102454.53
2022-10-11T22:23:11.699Z,102449.28
2022-10-11T22:25:39.084Z,102460.31
2022-10-11T22:28:06.669Z,102454.38
2022-10-11T22:30:33.731Z,102465.41
2022-10-11T22:33:00.246Z,102457.63
2022-10-11T22:35:26.902Z,102459.66
2022-10-11T22:37:53.471Z,102468.78
2022-10-11T22:40:20.252Z,102452.88
2022-10-11T22:42:46.871Z,102455.91
2022-10-11T22:45:13.475Z,102449.84
2022-10-11T22:47:39.950Z,102462.88
2022-10-11T22:50:06.683Z,102459.34
2022-10-11T22:52:33.163Z,102460.53
2022-10-11T22:54:59.674Z,102462.72
2022-10-11T22:57:26.163Z,102458.31
2022-10-11T22:59:52.709Z,102460.69
2022-10-11T23:02:19.201Z,102458.97
2022-10-11T23:04:45.727Z,102466.47
2022-10-11T23:07:12.252Z,102472.03
2022-10-11T23:09:38.774Z,102459.63
2022-10-11T23:12:05.556Z,102464.22
2022-10-11T23:14:32.100Z,102459.97
2022-10-11T23:16:58.617Z,102465.75
2022-10-11T23:19:25.177Z,102465.88
2022-10-11T23:21:51.724Z,102458.94
2022-10-11T23:24:18.281Z,102464.34
2022-10-11T23:26:44.759Z,102464.72
2022-10-11T23:29:11.317Z,102473.00
2022-10-11T23:31:37.801Z,102472.50
2022-10-11T23:34:04.342Z,102477.22
2022-10-11T23:36:30.844Z,102477.38
2022-10-11T23:38:58.684Z,102469.78
2022-10-11T23:41:28.878Z,102483.47
2022-10-11T23:43:56.003Z,102479.22
2022-10-11T23:46:22.671Z,102477.56
2022-10-11T23:48:49.221Z,102481.28
2022-10-11T23:51:16.597Z,102481.28
2022-10-11T23:53:43.097Z,102476.03
2022-10-11T23:56:11.321Z,102481.75
2022-10-11T23:58:38.100Z,102482.94
